Indianapolis, Indiana
Traffic Map
Current Weather Conditions
Indianapolis, Indiana
Broken Clouds
Broken Clouds
75°
Feels Like: 75°
Wind Chill: 75° Ceiling: 20000
Heat Index: 75° Visibility: 10mi
Dew Point: 72° Wind: 10mph
Humidity: 90% Direction: 210° (SSW)
Pressure: 29.93in Gusts: 0mph
Raw Report DataKIND 220954Z 21009KT 10SM BKN200 24/22 A2993 RMK AO2 SLP127 T02390222 $
Traffic Incident Summary
Active as of:
Severity:
Category:
InformationThere was an issue retrieving the traffic information for this location. Please try a different location or try again shortly.
Advertisements
Track Severe Weather on mobile